Time;durP1;ratioP1;P1;durP2;ratioP2;P2;SDS_P1;SDS_P2;PMS_P1;PMS_P2;Temp;Humidity;BMP_temperature;BMP_pressure;BME280_temperature;BME280_humidity;BME280_pressure;Samples;Min_cycle;Max_cycle;Signal;HPM_P1;HPM_P2
2022/11/07 00:00:21;;;;;;;8.90;6.43;;;;;;;4.74;100.00;101340.84;4899226;29;20348;-75
2022/11/07 00:02:49;;;;;;;10.43;7.10;;;;;;;4.83;100.00;101349.91;4899514;29;20316;-76
2022/11/07 00:05:14;;;;;;;11.45;6.20;;;;;;;4.84;100.00;101360.34;4899112;29;20298;-75
2022/11/07 00:07:40;;;;;;;9.00;6.37;;;;;;;4.84;100.00;101362.13;4898208;29;20441;-76
2022/11/07 00:10:13;;;;;;;8.90;7.03;;;;;;;4.89;100.00;101357.34;4897369;29;20361;-73
2022/11/07 00:12:38;;;;;;;9.40;6.87;;;;;;;4.90;100.00;101361.69;4898419;29;20037;-74
2022/11/07 00:18:43;;;;;;;10.90;6.70;;;;;;;4.74;100.00;101324.19;4898680;29;20056;-76
2022/11/07 00:21:09;;;;;;;9.23;6.33;;;;;;;4.96;100.00;101346.28;4899167;29;20780;-76
2022/11/07 00:23:38;;;;;;;10.00;7.07;;;;;;;4.97;100.00;101347.13;4881735;29;20353;-76
2022/11/07 00:26:06;;;;;;;8.50;5.93;;;;;;;4.96;100.00;101350.69;4898933;29;20505;-76
2022/11/07 00:28:36;;;;;;;9.85;6.85;;;;;;;4.97;100.00;101341.84;4898644;29;20088;-75
2022/11/07 00:31:02;;;;;;;9.40;7.20;;;;;;;5.01;100.00;101348.56;4898874;29;20048;-74
2022/11/07 00:33:28;;;;;;;7.33;6.27;;;;;;;4.89;100.00;101323.88;4898667;29;20272;-74
2022/11/07 00:35:53;;;;;;;8.87;6.57;;;;;;;4.98;100.00;101323.25;4898610;29;20483;-73
2022/11/07 00:38:19;;;;;;;8.63;6.00;;;;;;;5.03;100.00;101341.38;4920811;29;20412;-73
2022/11/07 00:41:02;;;;;;;9.83;6.80;;;;;;;5.02;100.00;101334.41;4905683;29;20048;-76
2022/11/07 00:43:28;;;;;;;7.53;5.67;;;;;;;5.05;100.00;101344.75;4921967;29;20028;-75
2022/11/07 00:45:55;;;;;;;9.10;6.17;;;;;;;5.08;100.00;101346.31;4914215;29;20733;-73
2022/11/07 00:48:21;;;;;;;9.97;6.57;;;;;;;5.05;100.00;101344.75;4900655;29;20268;-75
2022/11/07 00:50:47;;;;;;;6.47;5.53;;;;;;;5.07;100.00;101352.53;4900451;29;20269;-74
2022/11/07 00:53:13;;;;;;;8.87;6.27;;;;;;;5.06;100.00;101346.44;4899760;29;20127;-76
2022/11/07 00:55:39;;;;;;;8.53;5.90;;;;;;;5.08;100.00;101355.06;4882962;29;20044;-74
2022/11/07 00:58:06;;;;;;;8.63;5.87;;;;;;;5.13;100.00;101360.84;4901441;29;20574;-75
2022/11/07 01:00:32;;;;;;;8.80;5.80;;;;;;;5.12;100.00;101356.53;4868748;29;20625;-74
2022/11/07 01:05:41;;;;;;;8.30;5.87;;;;;;;5.14;100.00;101351.13;4917042;29;20036;-76
2022/11/07 01:08:07;;;;;;;12.33;6.10;;;;;;;5.14;100.00;101338.78;4921507;29;20281;-75
2022/11/07 01:10:32;;;;;;;10.30;5.77;;;;;;;5.14;100.00;101344.06;4918920;29;20024;-77
2022/11/07 01:12:58;;;;;;;7.13;5.70;;;;;;;5.14;100.00;101338.78;4899834;29;20037;-75
2022/11/07 01:15:24;;;;;;;7.00;5.03;;;;;;;5.10;100.00;101329.41;4900051;29;20056;-75
2022/11/07 01:17:49;;;;;;;8.00;5.90;;;;;;;5.11;100.00;101320.53;4899022;29;20123;-75
2022/11/07 01:20:15;;;;;;;7.07;5.67;;;;;;;5.12;100.00;101324.00;4899130;29;20371;-75
2022/11/07 01:22:40;;;;;;;7.60;5.90;;;;;;;5.12;100.00;101319.56;4898367;29;20040;-75
2022/11/07 01:25:06;;;;;;;8.80;5.97;;;;;;;5.11;100.00;101306.47;4897472;29;20028;-75
2022/11/07 01:27:32;;;;;;;9.07;6.20;;;;;;;5.14;100.00;101307.09;4898304;29;20028;-75
2022/11/07 01:29:57;;;;;;;7.87;5.77;;;;;;;5.08;100.00;101288.22;4897853;29;20605;-78
2022/11/07 01:32:23;;;;;;;8.30;6.67;;;;;;;5.09;100.00;101287.28;4898088;29;20037;-75
2022/11/07 01:34:48;;;;;;;8.80;5.97;;;;;;;5.11;100.00;101286.19;4897974;29;20029;-76
2022/11/07 01:37:14;;;;;;;7.70;5.70;;;;;;;5.18;100.00;101292.69;4897797;29;20135;-76
2022/11/07 01:39:45;;;;;;;8.30;6.17;;;;;;;5.14;100.00;101280.69;4897999;29;20083;-76
2022/11/07 01:42:11;;;;;;;7.93;6.73;;;;;;;5.09;100.00;101280.19;4897797;29;20377;-75
2022/11/07 01:45:19;;;;;;;9.47;5.67;;;;;;;5.18;100.00;101282.13;4896866;29;20729;-75
2022/11/07 01:47:45;;;;;;;8.63;6.47;;;;;;;5.14;100.00;101264.84;4898241;29;20369;-75
2022/11/07 01:50:10;;;;;;;7.67;5.93;;;;;;;5.17;100.00;101266.41;4898012;29;20272;-75
2022/11/07 01:52:40;;;;;;;8.80;6.03;;;;;;;5.15;100.00;101265.69;4897869;29;20278;-76
2022/11/07 01:55:14;;;;;;;8.90;6.37;;;;;;;5.09;100.00;101260.88;4897815;29;20485;-77
2022/11/07 01:57:54;;;;;;;9.63;7.23;;;;;;;5.17;100.00;101271.69;4897754;29;20391;-74
2022/11/07 02:00:21;;;;;;;12.50;8.07;;;;;;;5.14;100.00;101266.66;4897850;29;20273;-77
2022/11/07 02:22:09;;;;;;;8.93;7.00;;;;;;;4.79;100.00;101213.84;4838642;29;20682;-75
2022/11/07 02:24:37;;;;;;;9.37;6.63;;;;;;;4.93;100.00;101240.06;4880390;29;20296;-76
2022/11/07 02:27:08;;;;;;;9.18;7.03;;;;;;;4.94;100.00;101231.19;4897170;29;20264;-75
2022/11/07 02:29:40;;;;;;;7.43;5.90;;;;;;;4.90;100.00;101213.88;4879465;29;20028;-74
2022/11/07 02:32:29;;;;;;;6.93;5.80;;;;;;;5.00;100.00;101235.16;4895639;29;20265;-76
2022/11/07 02:35:25;;;;;;;8.60;7.07;;;;;;;5.01;100.00;101232.41;4899069;29;20344;-75
2022/11/07 02:37:51;;;;;;;7.97;5.60;;;;;;;4.97;100.00;101209.84;4901149;29;20598;-74
2022/11/07 02:40:17;;;;;;;6.70;5.80;;;;;;;5.04;100.00;101213.69;4901072;29;20269;-75
2022/11/07 02:42:43;;;;;;;8.77;6.03;;;;;;;5.05;100.00;101217.19;4901203;29;20363;-75
2022/11/07 02:45:17;;;;;;;10.57;6.20;;;;;;;5.14;100.00;101224.41;4901030;29;20429;-77
2022/11/07 02:47:43;;;;;;;7.93;6.50;;;;;;;4.92;100.00;101175.06;4901100;29;20472;-75
2022/11/07 02:50:11;;;;;;;8.13;5.60;;;;;;;5.12;100.00;101213.94;4900458;29;20265;-76
2022/11/07 02:52:37;;;;;;;9.43;5.97;;;;;;;5.14;100.00;101217.31;4900379;29;20104;-75
2022/11/07 02:55:05;;;;;;;7.90;6.37;;;;;;;5.15;100.00;101223.44;4901056;29;20067;-77
2022/11/07 02:57:30;;;;;;;7.90;6.35;;;;;;;5.17;100.00;101214.44;4903083;29;20056;-75
2022/11/07 02:59:56;;;;;;;7.20;5.43;;;;;;;5.22;100.00;101222.03;4901799;29;20028;-75
2022/11/07 03:02:23;;;;;;;7.37;6.20;;;;;;;5.26;100.00;101219.03;4899910;29;20033;-77
2022/11/07 03:04:49;;;;;;;8.20;6.23;;;;;;;5.26;100.00;101210.28;4899657;29;20028;-77
2022/11/07 03:07:15;;;;;;;9.07;7.17;;;;;;;5.30;100.00;101209.09;4898899;29;20281;-77
2022/11/07 03:09:40;;;;;;;12.07;6.07;;;;;;;5.26;100.00;101205.84;4900329;29;20304;-77
2022/11/07 03:12:06;;;;;;;7.60;6.80;;;;;;;5.33;100.00;101210.66;4900358;29;20029;-76
2022/11/07 03:14:31;;;;;;;9.30;6.80;;;;;;;5.33;100.00;101210.66;4900079;29;20043;-75
2022/11/07 03:16:57;;;;;;;7.10;6.23;;;;;;;5.28;100.00;101196.00;4900051;29;20021;-75
2022/11/07 03:19:22;;;;;;;8.33;6.03;;;;;;;5.31;100.00;101184.34;4900524;29;20032;-76
2022/11/07 03:21:51;;;;;;;7.73;5.80;;;;;;;5.26;100.00;101174.16;4900035;29;20029;-75
2022/11/07 03:24:17;;;;;;;8.95;6.18;;;;;;;5.23;100.00;101173.56;4900058;29;20028;-75
2022/11/07 03:26:44;;;;;;;11.90;6.63;;;;;;;5.33;100.00;101184.22;4899991;29;20039;-76
2022/11/07 03:29:12;;;;;;;9.27;6.77;;;;;;;5.36;100.00;101179.56;4883335;29;20256;-76
2022/11/07 03:31:37;;;;;;;9.60;6.57;;;;;;;5.38;100.00;101182.06;4883287;29;20028;-77
2022/11/07 03:34:02;;;;;;;10.03;6.23;;;;;;;5.35;100.00;101174.38;4900133;29;20614;-75
2022/11/07 03:36:28;;;;;;;7.20;6.20;;;;;;;5.29;100.00;101175.72;4899954;29;20029;-76
2022/11/07 03:38:54;;;;;;;8.60;5.97;;;;;;;5.34;100.00;101175.34;4900090;29;20028;-77
2022/11/07 03:41:20;;;;;;;7.97;6.13;;;;;;;5.34;100.00;101185.91;4883301;29;20033;-76
2022/11/07 03:43:46;;;;;;;7.13;6.20;;;;;;;5.28;100.00;101176.66;4899865;29;20040;-76
2022/11/07 03:46:13;;;;;;;8.20;6.70;;;;;;;5.33;100.00;101176.31;4898071;29;20124;-77
2022/11/07 03:48:38;;;;;;;8.67;6.50;;;;;;;5.35;100.00;101177.88;4882923;29;20769;-75
2022/11/07 03:51:06;;;;;;;7.50;6.27;;;;;;;5.38;100.00;101171.50;4899506;29;20273;-76
2022/11/07 03:53:31;;;;;;;11.00;6.73;;;;;;;5.18;100.00;101136.91;4899924;29;20140;-76
2022/11/07 03:55:57;;;;;;;9.43;6.67;;;;;;;5.32;100.00;101159.63;4898514;29;20080;-76
2022/11/07 03:58:24;;;;;;;18.10;7.67;;;;;;;5.41;100.00;101163.34;4899374;29;20045;-72
2022/11/07 04:00:50;;;;;;;8.53;6.23;;;;;;;5.44;100.00;101160.47;4899122;29;20465;-73
2022/11/07 04:03:16;;;;;;;8.13;6.30;;;;;;;5.44;100.00;101160.47;4899167;29;20345;-75
2022/11/07 04:05:41;;;;;;;9.57;6.27;;;;;;;5.45;100.00;101149.78;4898658;29;20372;-76
2022/11/07 04:08:07;;;;;;;9.50;6.50;;;;;;;5.48;100.00;101161.91;4899431;29;20024;-73
2022/11/07 04:10:32;;;;;;;6.60;6.00;;;;;;;5.51;100.00;101166.97;4882125;29;20124;-75
2022/11/07 04:18:28;;;;;;;7.73;6.57;;;;;;;5.60;100.00;101174.16;4899132;29;20583;-77
2022/11/07 04:20:53;;;;;;;8.30;6.47;;;;;;;5.59;100.00;101159.28;4899273;29;20040;-82
2022/11/07 04:23:19;;;;;;;10.73;6.50;;;;;;;5.64;100.00;101167.66;4882475;29;20080;-76
2022/11/07 04:28:29;;;;;;;10.03;6.07;;;;;;;5.67;100.00;101167.44;4899042;29;20104;-74
2022/11/07 04:30:55;;;;;;;8.43;6.00;;;;;;;5.64;100.00;101150.97;4898561;29;20363;-78
2022/11/07 04:33:20;;;;;;;10.00;7.40;;;;;;;5.68;100.00;101163.81;4898714;29;20441;-75
2022/11/07 04:35:46;;;;;;;11.67;5.97;;;;;;;5.69;100.00;101160.22;4898875;29;20029;-74
2022/11/07 04:38:11;;;;;;;6.57;5.63;;;;;;;5.70;100.00;101155.78;4898054;29;20071;-77
2022/11/07 04:40:37;;;;;;;9.33;7.10;;;;;;;5.69;100.00;101149.66;4898835;29;20487;-79
2022/11/07 04:43:07;;;;;;;9.37;7.50;;;;;;;5.73;100.00;101156.38;4898161;29;20096;-77
2022/11/07 04:45:38;;;;;;;8.93;6.63;;;;;;;5.70;100.00;101143.41;4898793;29;20033;-74
2022/11/07 04:48:04;;;;;;;7.60;6.40;;;;;;;5.68;100.00;101150.59;4898071;29;20349;-70
2022/11/07 04:50:30;;;;;;;10.80;7.00;;;;;;;5.72;100.00;101154.69;4898251;29;20296;-72
2022/11/07 04:52:58;;;;;;;8.43;6.30;;;;;;;5.71;100.00;101145.06;4898180;29;20068;-74
2022/11/07 04:55:29;;;;;;;10.20;5.93;;;;;;;5.70;100.00;101140.75;4897719;29;20812;-74
2022/11/07 04:57:56;;;;;;;11.00;6.97;;;;;;;5.75;100.00;101140.38;4897360;29;20056;-73
2022/11/07 05:00:23;;;;;;;7.60;6.33;;;;;;;5.78;100.00;101148.06;4899011;29;20501;-73
2022/11/07 05:02:49;;;;;;;8.63;6.63;;;;;;;5.79;100.00;101144.50;4898210;29;20115;-74
2022/11/07 05:05:18;;;;;;;8.87;6.10;;;;;;;5.81;100.00;101148.69;4898260;29;20096;-72
2022/11/07 05:07:43;;;;;;;12.57;6.68;;;;;;;5.81;100.00;101143.41;4897977;29;20336;-75
2022/11/07 05:10:26;;;;;;;10.73;6.73;;;;;;;5.76;100.00;101132.31;4898209;29;20381;-73
2022/11/07 05:12:52;;;;;;;11.40;6.83;;;;;;;5.69;100.00;101130.31;4897536;29;20038;-74
2022/11/07 05:15:18;;;;;;;9.23;6.33;;;;;;;5.71;100.00;101141.59;4897295;29;20124;-75
2022/11/07 05:17:44;;;;;;;9.53;5.67;;;;;;;5.71;100.00;101137.16;4880268;29;20755;-74
2022/11/07 05:20:38;;;;;;;8.23;5.83;;;;;;;5.73;100.00;101145.78;4897252;29;20037;-72
2022/11/07 05:23:11;;;;;;;10.00;6.10;;;;;;;5.71;100.00;101131.84;4897472;29;20036;-73
2022/11/07 05:25:38;;;;;;;8.17;5.90;;;;;;;5.54;100.00;101098.88;4897646;29;20434;-72
2022/11/07 05:28:04;;;;;;;9.73;5.83;;;;;;;5.73;100.00;101135.22;4897359;29;20085;-70
2022/11/07 05:30:30;;;;;;;7.47;5.87;;;;;;;5.73;100.00;101144.94;4880423;29;20128;-72
2022/11/07 05:32:55;;;;;;;9.73;6.37;;;;;;;5.70;100.00;101139.91;4897514;29;20070;-72
2022/11/07 05:35:21;;;;;;;8.23;5.90;;;;;;;5.72;100.00;101140.63;4897979;29;20034;-72
2022/11/07 05:37:47;;;;;;;6.60;5.97;;;;;;;5.69;100.00;101132.94;4897525;29;20040;-73
2022/11/07 05:40:13;;;;;;;8.53;5.70;;;;;;;5.74;100.00;101136.06;4897587;29;20052;-71
2022/11/07 05:42:38;;;;;;;16.37;5.80;;;;;;;5.74;100.00;101130.78;4897052;29;20505;-71
2022/11/07 05:45:04;;;;;;;12.50;7.07;;;;;;;5.71;100.00;101126.56;4897579;29;20515;-69
2022/11/07 05:47:30;;;;;;;7.67;5.50;;;;;;;5.49;100.00;101084.31;4897012;29;20109;-75
2022/11/07 05:49:56;;;;;;;8.17;6.73;;;;;;;5.75;100.00;101116.59;4898205;29;20541;-75
2022/11/07 05:52:21;;;;;;;8.13;6.43;;;;;;;5.74;100.00;101121.03;4909622;29;20080;-72
2022/11/07 05:54:47;;;;;;;7.93;5.53;;;;;;;5.79;100.00;101132.13;4916857;29;20032;-73
2022/11/07 05:57:13;;;;;;;11.63;6.20;;;;;;;5.78;100.00;101122.50;4916062;29;20076;-74
2022/11/07 05:59:39;;;;;;;8.90;5.93;;;;;;;5.84;100.00;101124.66;4913344;29;20040;-74
2022/11/07 06:02:04;;;;;;;9.70;6.70;;;;;;;5.80;100.00;101128.50;4898133;29;20047;-75
2022/11/07 06:04:30;;;;;;;7.10;5.63;;;;;;;5.80;100.00;101133.78;4899023;29;20057;-75
2022/11/07 06:06:55;;;;;;;6.30;5.47;;;;;;;5.76;100.00;101128.84;4898838;29;20584;-74
2022/11/07 06:09:21;;;;;;;7.33;5.33;;;;;;;5.80;100.00;101133.78;4900935;29;20036;-76
2022/11/07 06:11:46;;;;;;;9.13;5.57;;;;;;;5.78;100.00;101132.22;4901304;29;20485;-74
2022/11/07 06:14:12;;;;;;;7.67;5.63;;;;;;;5.80;100.00;101139.06;4901849;29;20043;-75
2022/11/07 06:16:37;;;;;;;6.00;5.40;;;;;;;5.77;100.00;101133.16;4910433;29;20036;-73
2022/11/07 06:19:03;;;;;;;7.70;5.83;;;;;;;5.75;100.00;101137.75;4918400;29;20031;-71
2022/11/07 06:21:29;;;;;;;6.77;5.20;;;;;;;5.74;100.00;101128.97;4920314;29;20037;-72
2022/11/07 06:23:54;;;;;;;6.07;5.10;;;;;;;5.78;100.00;101127.78;4919619;29;20029;-74
2022/11/07 06:26:20;;;;;;;8.13;5.10;;;;;;;5.79;100.00;101118.91;4902749;29;20024;-74
2022/11/07 06:28:45;;;;;;;6.63;5.17;;;;;;;5.81;100.00;101122.25;4901750;29;20032;-75
2022/11/07 06:31:11;;;;;;;7.40;6.40;;;;;;;5.88;100.00;101127.88;4901415;29;20494;-73
2022/11/07 06:33:36;;;;;;;8.67;5.10;;;;;;;5.84;100.00;101127.28;4884199;29;20529;-74
2022/11/07 06:36:07;;;;;;;10.93;5.77;;;;;;;5.73;100.00;101102.66;4900788;29;20032;-76
2022/11/07 06:38:33;;;;;;;7.67;5.77;;;;;;;5.86;100.00;101122.72;4901007;29;20505;-75
2022/11/07 06:41:10;;;;;;;6.90;5.53;;;;;;;5.87;100.00;101131.50;4900484;29;20043;-76
2022/11/07 06:43:35;;;;;;;8.07;6.33;;;;;;;5.87;100.00;101127.03;4901156;29;20083;-77
2022/11/07 06:46:04;;;;;;;8.77;6.77;;;;;;;5.88;100.00;101131.38;4902319;29;20032;-77
2022/11/07 06:48:30;;;;;;;7.32;5.18;;;;;;;5.85;100.00;101133.41;4902609;29;20127;-74
2022/11/07 06:50:57;;;;;;;8.83;6.87;;;;;;;5.90;100.00;101132.13;4909972;29;20102;-72
2022/11/07 06:53:23;;;;;;;6.27;5.67;;;;;;;5.78;100.00;101111.94;4894813;29;20096;-73
2022/11/07 06:55:49;;;;;;;9.30;6.20;;;;;;;5.86;100.00;101121.88;4893333;29;20124;-74
2022/11/07 06:58:14;;;;;;;9.27;6.33;;;;;;;5.85;100.00;101115.75;4889462;29;20584;-72
2022/11/07 07:00:40;;;;;;;7.53;5.50;;;;;;;5.86;100.00;101125.38;4915639;29;20068;-72
2022/11/07 07:03:05;;;;;;;9.13;6.70;;;;;;;5.89;100.00;101119.84;4915432;29;20040;-74
2022/11/07 07:05:32;;;;;;;7.70;5.40;;;;;;;5.86;100.00;101113.94;4914173;29;20040;-77
2022/11/07 07:07:58;;;;;;;9.53;5.33;;;;;;;5.87;100.00;101124.41;4900291;29;20044;-75
2022/11/07 07:10:24;;;;;;;10.50;6.30;;;;;;;5.88;100.00;101126.06;4894179;29;20020;-74
2022/11/07 07:12:49;;;;;;;6.77;5.57;;;;;;;5.89;100.00;101111.06;4916599;29;20044;-71
2022/11/07 07:15:15;;;;;;;7.27;5.33;;;;;;;5.96;100.00;101106.13;4890956;29;20028;-72
2022/11/07 07:17:40;;;;;;;7.83;6.30;;;;;;;5.99;100.00;101116.47;4900775;29;20035;-75
2022/11/07 07:20:07;;;;;;;8.70;5.33;;;;;;;5.94;100.00;101102.78;4901679;29;20119;-75
2022/11/07 07:22:35;;;;;;;8.23;5.72;;;;;;;5.97;100.00;101099.88;4883481;29;20055;-73
2022/11/07 07:25:04;;;;;;;6.82;6.13;;;;;;;6.01;100.00;101112.72;4899916;29;20095;-73
2022/11/07 07:27:29;;;;;;;8.50;6.73;;;;;;;6.03;100.00;101113.44;4898678;29;20461;-73
2022/11/07 07:29:55;;;;;;;7.93;5.67;;;;;;;6.03;100.00;101113.44;4900455;29;20418;-73
2022/11/07 07:32:23;;;;;;;9.50;6.20;;;;;;;6.04;100.00;101104.53;4885389;29;20124;-74
2022/11/07 07:34:50;;;;;;;8.23;5.72;;;;;;;6.03;100.00;101113.44;4905871;29;20063;-75
2022/11/07 07:37:16;;;;;;;11.60;6.10;;;;;;;6.05;100.00;101113.31;4905488;29;20122;-74
2022/11/07 07:39:45;;;;;;;10.47;6.30;;;;;;;6.08;100.00;101118.38;4889760;29;20462;-73
2022/11/07 07:42:10;;;;;;;10.40;6.03;;;;;;;6.07;100.00;101130.75;4887216;29;20115;-74
2022/11/07 07:44:36;;;;;;;9.70;5.60;;;;;;;6.08;100.00;101107.81;4900058;29;20542;-74
2022/11/07 07:47:01;;;;;;;9.73;7.20;;;;;;;6.05;100.00;101108.03;4898474;29;20031;-72
2022/11/07 07:49:27;;;;;;;8.43;6.73;;;;;;;6.02;100.00;101100.34;4899012;29;20028;-75
2022/11/07 07:51:53;;;;;;;9.80;6.77;;;;;;;6.03;100.00;101104.66;4882781;29;20064;-74
2022/11/07 07:54:18;;;;;;;12.13;6.40;;;;;;;6.02;100.00;101105.63;4899292;29;20393;-73
2022/11/07 07:56:46;;;;;;;9.00;6.83;;;;;;;6.00;100.00;101095.19;4899172;29;20052;-74
2022/11/07 07:59:12;;;;;;;7.50;6.35;;;;;;;6.05;100.00;101097.44;4882905;29;20032;-74
2022/11/07 08:01:37;;;;;;;7.30;5.70;;;;;;;6.05;100.00;101087.72;4882836;29;20099;-75
2022/11/07 08:04:03;;;;;;;7.80;7.00;;;;;;;6.10;100.00;101079.44;4882578;29;20468;-74
2022/11/07 08:06:29;;;;;;;8.07;6.43;;;;;;;6.13;100.00;101084.47;4867006;29;20140;-75
2022/11/07 08:08:55;;;;;;;11.43;7.07;;;;;;;6.13;100.00;101090.59;4882095;29;20033;-75
2022/11/07 08:11:20;;;;;;;8.37;6.97;;;;;;;6.18;100.00;101100.78;4898641;29;20037;-76
2022/11/07 08:13:46;;;;;;;12.10;6.77;;;;;;;6.18;100.00;101098.16;4898987;29;20032;-76
2022/11/07 08:16:11;;;;;;;7.97;6.70;;;;;;;6.25;100.00;101096.66;4899020;29;20069;-73
2022/11/07 08:18:40;;;;;;;16.13;7.07;;;;;;;6.26;100.00;101095.69;4899157;29;20033;-74
2022/11/07 08:21:06;;;;;;;10.88;6.55;;;;;;;6.29;100.00;101086.66;4899125;29;20108;-74
2022/11/07 08:23:31;;;;;;;9.60;6.93;;;;;;;6.30;100.00;101094.47;4898416;29;20045;-73
2022/11/07 08:25:59;;;;;;;14.17;9.60;;;;;;;6.34;100.00;101098.53;4898566;29;20029;-74
2022/11/07 08:28:29;;;;;;;8.80;6.07;;;;;;;6.30;100.00;101099.75;4898531;29;20508;-73
2022/11/07 08:31:09;;;;;;;11.27;7.70;;;;;;;6.29;100.00;101095.44;4898146;29;20501;-73
2022/11/07 08:33:35;;;;;;;8.73;6.17;;;;;;;6.32;100.00;101102.28;4898314;29;20047;-74
2022/11/07 08:36:02;;;;;;;9.40;7.70;;;;;;;6.32;100.00;101100.47;4898452;29;20037;-73
2022/11/07 08:38:29;;;;;;;11.47;6.87;;;;;;;6.34;100.00;101098.53;4898226;29;20032;-74
2022/11/07 08:40:55;;;;;;;8.67;6.17;;;;;;;6.35;100.00;101099.38;4881440;29;20555;-74
2022/11/07 08:43:21;;;;;;;10.10;6.03;;;;;;;6.26;100.00;101093.06;4898646;29;20473;-74
2022/11/07 08:45:48;;;;;;;10.30;7.60;;;;;;;6.34;100.00;101103.81;4898437;29;20035;-73
2022/11/07 08:48:16;;;;;;;12.00;7.00;;;;;;;6.32;100.00;101091.69;4898348;29;20086;-73
2022/11/07 08:50:41;;;;;;;11.40;7.07;;;;;;;6.35;100.00;101100.22;4898231;29;20473;-74
2022/11/07 08:53:08;;;;;;;15.70;8.50;;;;;;;6.35;100.00;101096.72;4898691;29;20056;-75
2022/11/07 08:55:35;;;;;;;9.60;6.90;;;;;;;6.38;100.00;101089.41;4898213;29;20052;-73
2022/11/07 08:58:04;;;;;;;12.02;7.55;;;;;;;6.44;100.00;101088.06;4881410;29;20049;-73
2022/11/07 09:00:30;;;;;;;11.13;7.70;;;;;;;6.46;100.00;101084.31;4897757;29;20458;-74
2022/11/07 09:02:55;;;;;;;13.13;7.90;;;;;;;6.46;100.00;101076.38;4898169;29;20044;-75
2022/11/07 09:05:21;;;;;;;12.07;7.93;;;;;;;6.42;100.00;101074.13;4898155;29;20388;-74
2022/11/07 09:07:46;;;;;;;8.50;7.10;;;;;;;6.48;100.00;101085.03;4898652;29;20158;-74
2022/11/07 09:10:12;;;;;;;9.57;6.87;;;;;;;6.48;100.00;101070.94;4898100;29;20029;-74
2022/11/07 09:12:48;;;;;;;8.90;7.03;;;;;;;6.45;100.00;101073.84;4898541;29;20051;-75
2022/11/07 09:15:15;;;;;;;10.70;6.67;;;;;;;6.46;100.00;101076.38;4898228;29;20176;-75
2022/11/07 09:17:40;;;;;;;10.80;6.53;;;;;;;6.43;100.00;101075.78;4897979;29;20422;-74
2022/11/07 09:20:07;;;;;;;11.27;7.10;;;;;;;6.45;100.00;101066.75;4897751;29;20175;-72
2022/11/07 09:22:33;;;;;;;10.33;7.07;;;;;;;6.41;100.00;101065.34;4897664;29;20109;-76
2022/11/07 09:24:58;;;;;;;11.13;6.37;;;;;;;6.38;100.00;101056.81;4898026;29;20131;-73
2022/11/07 09:27:24;;;;;;;13.67;7.33;;;;;;;6.35;100.00;101057.88;4898327;29;20039;-75
2022/11/07 09:29:49;;;;;;;15.00;8.50;;;;;;;6.37;100.00;101061.28;4898055;29;20039;-75
2022/11/07 09:32:15;;;;;;;15.00;7.77;;;;;;;6.38;100.00;101064.75;4897922;29;20032;-74
2022/11/07 09:34:43;;;;;;;10.77;8.03;;;;;;;6.39;100.00;101069.94;4897508;29;20071;-74
2022/11/07 09:37:10;;;;;;;8.20;6.23;;;;;;;6.37;100.00;101071.84;4897840;29;20385;-77
2022/11/07 09:39:35;;;;;;;10.67;7.57;;;;;;;6.38;100.00;101065.59;4897992;29;20033;-73
2022/11/07 09:42:00;;;;;;;10.47;7.13;;;;;;;6.38;100.00;101060.31;4897475;29;20346;-75
2022/11/07 09:44:49;;;;;;;9.10;8.03;;;;;;;6.35;100.00;101059.69;4883487;29;20028;-74
2022/11/07 09:47:36;;;;;;;9.63;7.07;;;;;;;6.37;100.00;101060.44;4903267;29;20035;-75
2022/11/07 09:50:11;;;;;;;12.77;7.77;;;;;;;6.35;100.00;101057.88;4901743;29;20076;-74
2022/11/07 09:53:13;;;;;;;11.90;7.73;;;;;;;6.28;100.00;101056.72;4901552;29;20092;-74
2022/11/07 09:55:57;;;;;;;11.03;8.53;;;;;;;6.22;100.00;101065.19;4883816;29;20044;-75
2022/11/07 09:58:29;;;;;;;14.20;8.77;;;;;;;6.15;100.00;101071.94;4900926;29;20040;-74
2022/11/07 10:01:00;;;;;;;13.47;7.43;;;;;;;6.13;100.00;101066.78;4901245;29;20039;-74
2022/11/07 10:03:26;;;;;;;9.70;7.30;;;;;;;6.09;100.00;101062.72;4884683;29;20063;-75
2022/11/07 10:05:52;;;;;;;12.60;8.00;;;;;;;6.12;100.00;101061.63;4902346;29;20067;-76
2022/11/07 10:08:22;;;;;;;11.23;7.90;;;;;;;6.05;100.00;101049.84;4903043;29;20397;-75
2022/11/07 10:10:55;;;;;;;10.57;7.13;;;;;;;6.19;100.00;101063.63;4902474;29;20569;-76
2022/11/07 10:13:56;;;;;;;9.57;6.87;;;;;;;6.23;100.00;101053.63;4885496;29;20051;-74
2022/11/07 10:16:49;;;;;;;7.87;6.77;;;;;;;6.20;100.00;101056.53;4902432;29;20111;-75
2022/11/07 10:19:27;;;;;;;12.03;6.90;;;;;;;6.23;100.00;101043.06;4901224;29;20032;-75
2022/11/07 10:22:27;;;;;;;13.00;7.83;;;;;;;6.28;100.00;101046.16;4901198;29;20116;-76
2022/11/07 10:25:33;;;;;;;9.70;7.23;;;;;;;6.33;100.00;101046.59;4901024;29;20358;-75
2022/11/07 10:28:11;;;;;;;9.43;6.87;;;;;;;6.33;100.00;101038.66;4901204;29;20036;-76
2022/11/07 10:30:37;;;;;;;7.53;6.55;;;;;;;6.35;100.00;101041.19;4901015;29;20133;-72
2022/11/07 10:33:23;;;;;;;10.23;6.83;;;;;;;6.31;100.00;101034.47;4901370;29;20096;-75
2022/11/07 10:36:04;;;;;;;10.27;6.07;;;;;;;6.28;100.00;101025.00;4900773;29;20123;-74
2022/11/07 10:38:33;;;;;;;9.83;7.30;;;;;;;6.35;100.00;101041.19;4900569;29;20059;-77
2022/11/07 10:40:58;;;;;;;;;;;;;;;6.37;100.00;101040.13;4901830;29;20031;-75
2022/11/07 10:43:40;;;;;;;6.67;5.37;;;;;;;6.39;100.00;101038.19;4884447;29;20259;-74
2022/11/07 10:46:16;;;;;;;10.20;6.47;;;;;;;6.37;100.00;101040.13;4901093;29;20163;-76
2022/11/07 10:48:55;;;;;;;9.07;6.53;;;;;;;6.42;100.00;101032.63;4900784;29;20032;-73
2022/11/07 10:51:33;;;;;;;8.87;6.70;;;;;;;6.46;100.00;101031.41;4883912;29;20021;-77
2022/11/07 10:53:58;;;;;;;14.10;7.15;;;;;;;6.42;100.00;101026.50;4901515;29;20032;-76
2022/11/07 10:56:24;;;;;;;8.50;6.20;;;;;;;6.43;100.00;101026.38;4884801;29;20362;-76
2022/11/07 10:58:52;;;;;;;12.37;6.50;;;;;;;6.43;100.00;101034.31;4901084;29;20033;-75
2022/11/07 11:01:24;;;;;;;9.30;6.23;;;;;;;6.42;100.00;101029.97;4886910;29;20068;-78
2022/11/07 11:03:50;;;;;;;9.37;6.67;;;;;;;6.44;100.00;101033.34;4903118;29;20029;-74
2022/11/07 11:06:29;;;;;;;8.93;6.47;;;;;;;6.46;100.00;101031.41;4899649;29;20080;-72
2022/11/07 11:08:54;;;;;;;9.55;7.20;;;;;;;6.37;100.00;101028.69;4900192;29;20039;-76
2022/11/07 11:11:20;;;;;;;8.10;6.30;;;;;;;6.41;100.00;101030.94;4898838;29;20111;-74
2022/11/07 11:13:46;;;;;;;8.57;5.97;;;;;;;6.39;100.00;101032.88;4899713;29;20152;-74
2022/11/07 11:16:12;;;;;;;8.73;6.07;;;;;;;6.38;100.00;101041.78;4883790;29;20068;-76
2022/11/07 11:18:38;;;;;;;10.60;7.27;;;;;;;6.39;100.00;101027.59;4900452;29;20044;-73
2022/11/07 11:21:05;;;;;;;13.07;7.23;;;;;;;6.38;100.00;101033.00;4901733;29;20473;-76
2022/11/07 11:23:36;;;;;;;10.27;6.97;;;;;;;6.41;100.00;101030.94;4902019;29;20028;-73
2022/11/07 11:26:20;;;;;;;12.30;7.37;;;;;;;6.41;100.00;101036.25;4900326;29;20381;-74
2022/11/07 11:28:54;;;;;;;11.67;6.67;;;;;;;6.42;100.00;101031.78;4883639;29;20039;-75
2022/11/07 11:31:44;;;;;;;7.87;6.33;;;;;;;6.38;100.00;101025.09;4900208;29;20485;-76
2022/11/07 11:34:19;;;;;;;9.03;6.50;;;;;;;6.38;100.00;101025.09;4899781;29;20429;-74
2022/11/07 11:36:56;;;;;;;9.07;6.83;;;;;;;6.29;100.00;101004.66;4899951;29;20523;-75
2022/11/07 11:39:58;;;;;;;13.67;7.07;;;;;;;6.38;100.00;101019.78;4899751;29;20040;-74
2022/11/07 11:42:26;;;;;;;8.27;6.93;;;;;;;6.34;100.00;101021.81;4899495;29;20119;-74
2022/11/07 11:44:56;;;;;;;9.77;7.22;;;;;;;6.29;100.00;101002.88;4882253;29;20111;-75
2022/11/07 11:47:26;;;;;;;12.43;7.27;;;;;;;6.32;100.00;101012.34;4899127;29;20036;-75
2022/11/07 11:49:58;;;;;;;14.30;7.43;;;;;;;6.28;100.00;101017.06;4883317;29;20135;-75
2022/11/07 11:52:24;;;;;;;13.00;8.13;;;;;;;6.30;100.00;101014.28;4900449;29;20119;-74
2022/11/07 11:54:52;;;;;;;12.77;7.70;;;;;;;6.30;100.00;101009.84;4900143;29;20036;-75
2022/11/07 11:57:27;;;;;;;15.77;6.83;;;;;;;6.32;100.00;101002.59;4900156;29;20083;-75
2022/11/07 12:00:05;;;;;;;15.47;7.27;;;;;;;6.35;100.00;101006.78;4900173;29;20078;-73
2022/11/07 12:02:49;;;;;;;11.25;7.28;;;;;;;6.41;100.00;100998.38;4899518;29;20111;-74